createdAt,value
2022-09-04T00:00:03.348Z,81.30
2022-09-04T00:02:48.283Z,81.80
2022-09-04T00:05:21.826Z,81.90
2022-09-04T00:07:58.929Z,81.70
2022-09-04T00:10:32.163Z,81.80
2022-09-04T00:13:06.964Z,81.50
2022-09-04T00:15:40.326Z,81.30
2022-09-04T00:18:10.768Z,81.60
2022-09-04T00:20:43.785Z,81.70
2022-09-04T00:23:19.380Z,82.30
2022-09-04T00:25:54.358Z,83.20
2022-09-04T00:28:33.673Z,83.80
2022-09-04T00:31:08.224Z,83.60
2022-09-04T00:33:44.657Z,83.20
2022-09-04T00:36:14.591Z,83.30
2022-09-04T00:38:48.787Z,83.20
2022-09-04T00:41:27.938Z,83.30
2022-09-04T00:44:50.924Z,83.60
2022-09-04T00:47:35.461Z,83.90
2022-09-04T00:50:24.732Z,83.20
2022-09-04T00:53:13.742Z,83.30
2022-09-04T00:55:57.155Z,83.10
2022-09-04T00:58:42.473Z,83.00
2022-09-04T01:01:15.115Z,83.40
2022-09-04T01:04:01.642Z,84.50
2022-09-04T01:06:42.561Z,85.50
2022-09-04T01:09:31.036Z,86.10
2022-09-04T01:12:11.285Z,86.10
2022-09-04T01:14:43.162Z,86.00
2022-09-04T01:17:19.423Z,85.90
2022-09-04T01:19:57.355Z,85.80
2022-09-04T01:22:51.076Z,85.90
2022-09-04T01:25:33.573Z,86.10
2022-09-04T01:28:08.832Z,86.30
2022-09-04T01:30:47.199Z,86.40
2022-09-04T01:33:23.764Z,86.00
2022-09-04T01:35:58.768Z,86.60
2022-09-04T01:38:36.367Z,87.10
2022-09-04T01:41:11.853Z,85.90
2022-09-04T01:43:41.209Z,85.90
2022-09-04T01:46:22.589Z,86.50
2022-09-04T01:48:58.255Z,87.20
2022-09-04T01:51:33.960Z,87.90
2022-09-04T01:54:13.675Z,87.80
2022-09-04T01:56:46.602Z,87.80
2022-09-04T01:59:25.455Z,87.50
2022-09-04T02:01:58.243Z,88.40
2022-09-04T02:04:32.032Z,88.80
2022-09-04T02:07:08.620Z,88.50
2022-09-04T02:09:45.144Z,88.10
2022-09-04T02:12:29.173Z,88.70
2022-09-04T02:15:07.330Z,89.00
2022-09-04T02:17:43.577Z,89.50
2022-09-04T02:20:22.354Z,90.00
2022-09-04T02:22:59.940Z,90.00
2022-09-04T02:25:31.719Z,89.80
2022-09-04T02:28:14.305Z,89.70
2022-09-04T02:30:54.337Z,90.20
2022-09-04T02:33:31.335Z,90.40
2022-09-04T02:36:06.579Z,91.20
2022-09-04T02:38:43.889Z,91.40
2022-09-04T02:41:19.599Z,91.20
2022-09-04T02:43:57.518Z,91.20
2022-09-04T02:46:32.686Z,91.50
2022-09-04T02:49:10.423Z,91.20
2022-09-04T02:51:53.106Z,91.30
2022-09-04T02:54:33.754Z,91.50
2022-09-04T02:57:09.849Z,91.40
2022-09-04T02:59:54.906Z,91.60
2022-09-04T03:02:29.306Z,91.90
2022-09-04T03:05:04.956Z,91.90
2022-09-04T03:07:36.474Z,92.30
2022-09-04T03:10:12.432Z,92.60
2022-09-04T03:12:46.751Z,92.90
2022-09-04T03:15:21.399Z,93.60
2022-09-04T03:17:59.711Z,93.50
2022-09-04T03:20:29.213Z,94.00
2022-09-04T03:23:03.329Z,94.80
2022-09-04T03:25:53.588Z,95.50
2022-09-04T03:28:34.078Z,95.30
2022-09-04T03:31:20.522Z,95.10
2022-09-04T03:33:58.705Z,95.50
2022-09-04T03:36:38.101Z,95.60
2022-09-04T03:39:13.133Z,95.90
2022-09-04T03:41:46.898Z,96.30
2022-09-04T03:44:28.531Z,96.30
2022-09-04T03:47:06.122Z,96.10
2022-09-04T03:49:46.134Z,95.50
2022-09-04T03:52:21.202Z,95.10
2022-09-04T03:55:03.583Z,95.00
2022-09-04T03:57:52.823Z,94.50
2022-09-04T04:00:22.775Z,94.40
2022-09-04T04:03:09.070Z,94.60
2022-09-04T04:05:43.819Z,94.40
2022-09-04T04:08:51.054Z,94.10
2022-09-04T04:11:43.302Z,94.40
2022-09-04T04:14:30.881Z,94.70
2022-09-04T04:17:20.309Z,95.20
2022-09-04T04:20:05.287Z,95.90
2022-09-04T04:22:55.296Z,96.20
2022-09-04T04:25:48.813Z,96.80
2022-09-04T04:28:33.786Z,97.10
2022-09-04T04:31:11.271Z,97.20
2022-09-04T04:33:52.496Z,97.20
2022-09-04T04:36:29.432Z,97.50
2022-09-04T04:39:13.479Z,97.40
2022-09-04T04:42:05.587Z,97.40
2022-09-04T04:45:15.534Z,97.20
2022-09-04T04:48:38.061Z,96.70
2022-09-04T04:51:17.735Z,96.50
2022-09-04T04:53:54.983Z,96.90
2022-09-04T04:56:31.312Z,97.40
2022-09-04T04:59:21.238Z,97.80
2022-09-04T05:02:00.075Z,98.00
2022-09-04T05:04:41.043Z,98.20
2022-09-04T05:07:17.744Z,98.30
2022-09-04T05:09:52.546Z,98.90
2022-09-04T05:12:31.597Z,98.70
2022-09-04T05:15:04.662Z,98.80
2022-09-04T05:17:37.275Z,99.60
2022-09-04T05:20:25.273Z,99.60
2022-09-04T05:23:05.340Z,99.30
2022-09-04T05:25:41.169Z,99.10
2022-09-04T05:28:21.872Z,99.00
2022-09-04T05:30:56.768Z,99.10
2022-09-04T05:33:32.707Z,99.30
2022-09-04T05:36:09.386Z,99.50
2022-09-04T05:38:47.842Z,99.40
2022-09-04T05:41:32.188Z,99.30
2022-09-04T05:44:15.999Z,99.20
2022-09-04T05:46:58.972Z,99.00
2022-09-04T05:49:47.319Z,99.20
2022-09-04T05:52:38.733Z,99.30
2022-09-04T05:55:37.353Z,99.30
2022-09-04T05:58:17.537Z,99.80
2022-09-04T06:01:00.103Z,99.90
2022-09-04T06:03:58.405Z,99.60
2022-09-04T06:06:37.472Z,99.90
2022-09-04T06:09:24.689Z,99.90
2022-09-04T06:12:05.649Z,99.90
2022-09-04T06:14:58.773Z,99.90
2022-09-04T06:17:44.815Z,99.90
2022-09-04T06:20:38.969Z,99.90
2022-09-04T06:23:29.668Z,99.90
2022-09-04T06:26:13.132Z,99.90
2022-09-04T06:28:54.394Z,99.90
2022-09-04T06:32:04.215Z,99.70
2022-09-04T06:34:56.742Z,99.40
2022-09-04T06:37:34.142Z,99.40
2022-09-04T06:40:16.807Z,99.10
2022-09-04T06:42:56.331Z,98.20
2022-09-04T06:45:35.320Z,97.70
2022-09-04T06:48:13.215Z,97.80
2022-09-04T06:50:53.453Z,97.50
2022-09-04T06:53:35.381Z,97.20
2022-09-04T06:56:16.866Z,96.80
2022-09-04T06:59:01.638Z,95.90
2022-09-04T07:01:40.399Z,95.70
2022-09-04T07:04:21.005Z,94.80
2022-09-04T07:06:59.793Z,94.90
2022-09-04T07:09:33.508Z,94.40
2022-09-04T07:12:21.724Z,94.90
2022-09-04T07:15:25.526Z,95.00
2022-09-04T07:18:02.743Z,94.40
2022-09-04T07:20:37.169Z,93.70
2022-09-04T07:23:23.694Z,93.50
2022-09-04T07:26:03.659Z,93.50
2022-09-04T07:28:44.625Z,93.20
2022-09-04T07:31:17.885Z,92.50
2022-09-04T07:33:54.891Z,92.20
2022-09-04T07:36:32.851Z,92.50
2022-09-04T07:39:08.700Z,91.90
2022-09-04T07:41:45.683Z,91.90
2022-09-04T07:44:20.857Z,91.80
2022-09-04T07:46:57.612Z,91.80
2022-09-04T07:49:32.639Z,91.40
2022-09-04T07:52:10.045Z,91.50
2022-09-04T07:55:00.389Z,90.80
2022-09-04T07:57:47.786Z,90.40
2022-09-04T08:00:18.019Z,89.90
2022-09-04T08:03:17.565Z,89.70
2022-09-04T08:05:52.615Z,89.60
2022-09-04T08:08:53.222Z,89.50
2022-09-04T08:11:33.522Z,88.10
2022-09-04T08:14:21.992Z,87.40
2022-09-04T08:16:58.631Z,86.70
2022-09-04T08:19:42.898Z,86.80
2022-09-04T08:22:15.521Z,87.20
2022-09-04T08:25:07.331Z,86.90
2022-09-04T08:27:52.181Z,86.20
2022-09-04T08:30:21.888Z,84.60
2022-09-04T08:33:19.462Z,84.40
2022-09-04T08:35:54.197Z,84.90
2022-09-04T08:38:44.825Z,83.90
2022-09-04T08:41:45.279Z,83.70
2022-09-04T08:44:52.793Z,82.00
2022-09-04T08:47:57.298Z,81.50
2022-09-04T08:50:48.139Z,83.20
2022-09-04T08:53:59.268Z,82.60
2022-09-04T08:56:30.964Z,83.00
2022-09-04T08:59:33.766Z,81.90
2022-09-04T09:02:27.120Z,79.50
2022-09-04T09:05:40.514Z,79.30
2022-09-04T09:08:29.686Z,79.40
2022-09-04T09:11:33.841Z,79.60
2022-09-04T09:14:24.225Z,79.50
2022-09-04T09:17:05.905Z,80.70
2022-09-04T09:19:46.203Z,79.90
2022-09-04T09:22:38.842Z,79.80
2022-09-04T09:25:16.783Z,80.10
2022-09-04T09:28:23.312Z,79.70
2022-09-04T09:31:18.080Z,78.70
2022-09-04T09:34:29.331Z,78.20
2022-09-04T09:37:20.227Z,77.60
2022-09-04T09:40:24.880Z,76.50
2022-09-04T09:43:34.634Z,75.60
2022-09-04T09:46:30.215Z,74.10
2022-09-04T09:49:27.854Z,74.40
2022-09-04T09:52:28.859Z,74.60
2022-09-04T09:55:45.559Z,74.50
2022-09-04T09:58:47.631Z,74.00
2022-09-04T10:01:34.984Z,73.50
2022-09-04T10:04:22.752Z,73.50
2022-09-04T10:07:40.809Z,73.00
2022-09-04T10:10:42.363Z,71.50
2022-09-04T10:13:37.182Z,70.80
2022-09-04T10:16:36.501Z,72.10
2022-09-04T10:19:39.069Z,72.30
2022-09-04T10:22:29.370Z,72.50
2022-09-04T10:25:32.770Z,70.20
2022-09-04T10:28:30.709Z,71.00
2022-09-04T10:31:19.767Z,68.90
2022-09-04T10:34:05.411Z,67.50
2022-09-04T10:36:40.392Z,68.30
2022-09-04T10:39:39.056Z,66.90
2022-09-04T10:42:16.509Z,66.50
2022-09-04T10:45:12.376Z,67.40
2022-09-04T10:48:21.727Z,66.70
2022-09-04T10:51:34.678Z,65.80
2022-09-04T10:54:44.956Z,66.20
2022-09-04T10:57:32.561Z,65.70
2022-09-04T11:00:08.704Z,64.80
2022-09-04T11:03:13.787Z,66.00
2022-09-04T11:06:29.511Z,65.00
2022-09-04T11:09:16.590Z,65.80
2022-09-04T11:12:10.500Z,64.70
2022-09-04T11:15:23.866Z,65.40
2022-09-04T11:18:34.641Z,64.50
2022-09-04T11:21:37.013Z,64.20
2022-09-04T11:24:53.438Z,62.50
2022-09-04T11:27:58.915Z,61.50
2022-09-04T11:30:39.009Z,61.90
2022-09-04T11:34:03.940Z,62.20
2022-09-04T11:37:15.348Z,61.00
2022-09-04T11:40:25.770Z,59.30
2022-09-04T11:43:19.658Z,60.60
2022-09-04T11:46:05.778Z,59.70
2022-09-04T11:48:55.798Z,59.70
2022-09-04T11:51:52.651Z,58.60
2022-09-04T11:54:40.011Z,59.30
2022-09-04T11:57:16.509Z,59.10
2022-09-04T12:00:03.845Z,59.20
2022-09-04T12:02:49.473Z,59.00
2022-09-04T12:05:39.300Z,59.00
2022-09-04T12:08:23.750Z,58.60
2022-09-04T12:11:22.255Z,59.40
2022-09-04T12:14:17.455Z,59.30
2022-09-04T12:17:17.313Z,59.90
2022-09-04T12:20:23.911Z,59.90
2022-09-04T12:23:13.787Z,59.90
2022-09-04T12:26:03.741Z,59.80
2022-09-04T12:28:51.379Z,58.30
2022-09-04T12:31:38.646Z,58.40
2022-09-04T12:34:36.590Z,58.70
2022-09-04T12:37:28.718Z,58.80
2022-09-04T12:40:21.874Z,58.40
2022-09-04T12:42:57.253Z,57.20
2022-09-04T12:45:35.206Z,57.80
2022-09-04T12:48:11.238Z,57.30
2022-09-04T12:50:45.356Z,56.70
2022-09-04T12:53:49.285Z,56.80
2022-09-04T12:56:28.061Z,56.20
2022-09-04T12:59:16.157Z,56.20
2022-09-04T13:01:59.120Z,57.20
2022-09-04T13:04:34.030Z,57.20
2022-09-04T13:07:16.552Z,57.90
2022-09-04T13:09:53.645Z,57.00
2022-09-04T13:12:28.420Z,57.10
2022-09-04T13:15:32.787Z,57.00
2022-09-04T13:18:24.186Z,57.90
2022-09-04T13:20:59.031Z,58.30
2022-09-04T13:23:46.560Z,57.60
2022-09-04T13:26:31.110Z,57.70
2022-09-04T13:29:12.183Z,56.80
2022-09-04T13:31:51.299Z,56.80
2022-09-04T13:34:26.509Z,57.90
2022-09-04T13:37:04.199Z,58.50
2022-09-04T13:40:08.127Z,58.60
2022-09-04T13:43:18.003Z,59.40
2022-09-04T13:45:50.674Z,59.80
2022-09-04T13:48:33.325Z,59.20
2022-09-04T13:51:13.405Z,59.40
2022-09-04T13:54:04.860Z,58.90
2022-09-04T13:56:40.681Z,58.00
2022-09-04T13:59:14.799Z,58.10
2022-09-04T14:01:49.261Z,57.20
2022-09-04T14:04:22.163Z,57.50
2022-09-04T14:06:50.517Z,58.20
2022-09-04T14:09:18.612Z,58.00
2022-09-04T14:12:13.489Z,58.20
2022-09-04T14:15:09.950Z,58.20
2022-09-04T14:17:46.210Z,58.20
2022-09-04T14:20:22.476Z,58.30
2022-09-04T14:22:59.854Z,58.20
2022-09-04T14:25:32.023Z,58.10
2022-09-04T14:28:05.539Z,58.10
2022-09-04T14:30:41.197Z,58.40
2022-09-04T14:33:22.131Z,58.80
2022-09-04T14:36:03.127Z,58.70
2022-09-04T14:38:49.722Z,58.30
2022-09-04T14:41:35.884Z,57.90
2022-09-04T14:44:14.786Z,57.60
2022-09-04T14:46:51.564Z,57.60
2022-09-04T14:49:25.351Z,58.20
2022-09-04T14:51:56.458Z,58.80
2022-09-04T14:54:28.441Z,59.20
2022-09-04T14:57:01.121Z,59.50
2022-09-04T14:59:35.192Z,59.90
2022-09-04T15:02:19.042Z,61.50
2022-09-04T15:04:51.717Z,60.70
2022-09-04T15:07:29.681Z,60.00
2022-09-04T15:10:10.624Z,60.90
2022-09-04T15:12:42.636Z,60.70
2022-09-04T15:15:16.372Z,61.10
2022-09-04T15:17:51.461Z,61.30
2022-09-04T15:20:23.455Z,60.50
2022-09-04T15:22:55.959Z,61.00
2022-09-04T15:25:58.862Z,61.20
2022-09-04T15:28:34.098Z,60.70
2022-09-04T15:31:15.477Z,61.10
2022-09-04T15:33:46.682Z,61.80
2022-09-04T15:36:20.102Z,61.30
2022-09-04T15:38:51.923Z,62.20
2022-09-04T15:41:25.845Z,61.20
2022-09-04T15:43:58.854Z,61.90
2022-09-04T15:46:37.316Z,62.70
2022-09-04T15:49:21.334Z,62.60
2022-09-04T15:51:56.119Z,63.20
2022-09-04T15:54:31.333Z,61.40
2022-09-04T15:57:06.131Z,61.70
2022-09-04T15:59:44.499Z,61.80
2022-09-04T16:02:24.496Z,62.70
2022-09-04T16:05:03.746Z,61.70
2022-09-04T16:07:46.461Z,62.00
2022-09-04T16:10:21.559Z,62.50
2022-09-04T16:12:55.982Z,62.00
2022-09-04T16:15:30.534Z,61.90
2022-09-04T16:18:02.256Z,62.30
2022-09-04T16:20:37.168Z,63.40
2022-09-04T16:23:09.088Z,62.90
2022-09-04T16:25:40.478Z,63.50
2022-09-04T16:28:15.047Z,63.80
2022-09-04T16:30:47.037Z,64.20
2022-09-04T16:33:27.701Z,63.90
2022-09-04T16:36:02.946Z,64.20
2022-09-04T16:38:40.547Z,64.40
2022-09-04T16:41:14.818Z,64.50
2022-09-04T16:44:08.647Z,63.90
2022-09-04T16:46:39.819Z,64.10
2022-09-04T16:49:11.361Z,63.70
2022-09-04T16:51:44.939Z,64.80
2022-09-04T16:54:24.761Z,64.90
2022-09-04T16:57:12.749Z,63.90
2022-09-04T16:59:46.347Z,64.50
2022-09-04T17:02:22.276Z,64.20
2022-09-04T17:04:55.966Z,65.10
2022-09-04T17:07:31.052Z,66.00
2022-09-04T17:10:06.516Z,65.20
2022-09-04T17:12:49.481Z,66.10
2022-09-04T17:15:25.370Z,65.70
2022-09-04T17:17:54.736Z,65.30
2022-09-04T17:20:33.616Z,65.10
2022-09-04T17:29:01.966Z,65.00
2022-09-04T17:29:11.932Z,65.30
2022-09-04T17:33:03.468Z,66.10
2022-09-04T17:39:41.094Z,66.30
2022-09-04T17:40:40.889Z,66.80
2022-09-04T17:41:39.747Z,67.10
2022-09-04T17:44:02.164Z,67.60
2022-09-04T17:46:36.677Z,67.60
2022-09-04T17:49:16.015Z,67.80
2022-09-04T17:51:50.150Z,68.00
2022-09-04T17:54:23.007Z,68.40
2022-09-04T17:56:58.502Z,68.40
2022-09-04T17:59:36.214Z,68.70
2022-09-04T18:02:12.267Z,68.90
2022-09-04T18:04:47.222Z,70.00
2022-09-04T18:08:08.122Z,69.80
2022-09-04T18:10:23.254Z,69.90
2022-09-04T18:13:00.583Z,70.50
2022-09-04T18:15:35.078Z,70.60
2022-09-04T18:18:11.586Z,70.40
2022-09-04T18:20:44.701Z,70.40
2022-09-04T18:23:50.965Z,70.50
2022-09-04T18:26:40.064Z,70.70
2022-09-04T18:30:27.463Z,71.10
2022-09-04T18:37:16.827Z,71.90
2022-09-04T18:37:22.079Z,71.70
2022-09-04T18:38:19.542Z,72.40
2022-09-04T18:47:41.685Z,72.40
2022-09-04T18:50:20.466Z,72.50
2022-09-04T18:50:32.003Z,72.50
2022-09-04T18:50:49.245Z,73.00
2022-09-04T18:52:17.381Z,73.30
2022-09-04T18:54:49.127Z,74.40
2022-09-04T18:57:26.615Z,73.90
2022-09-04T19:00:08.742Z,74.20
2022-09-04T19:02:53.507Z,74.60
2022-09-04T19:05:44.395Z,74.80
2022-09-04T19:08:20.459Z,75.20
2022-09-04T19:10:54.711Z,75.50
2022-09-04T19:13:28.047Z,76.10
2022-09-04T19:16:01.382Z,77.00
2022-09-04T19:18:41.710Z,77.90
2022-09-04T19:21:32.075Z,78.20
2022-09-04T19:24:13.953Z,78.60
2022-09-04T19:26:45.887Z,78.60
2022-09-04T19:29:21.386Z,79.40
2022-09-04T19:31:54.951Z,80.10
2022-09-04T19:34:29.313Z,80.00
2022-09-04T19:37:20.404Z,80.00
2022-09-04T19:46:01.500Z,80.40
2022-09-04T19:46:03.557Z,80.40
2022-09-04T19:46:17.542Z,80.40
2022-09-04T19:49:06.357Z,80.40
2022-09-04T19:53:19.220Z,81.00
2022-09-04T19:54:33.133Z,81.60
2022-09-04T19:57:32.566Z,81.40
2022-09-04T20:00:47.002Z,81.60
2022-09-04T20:03:00.038Z,81.30
2022-09-04T20:05:29.955Z,81.50
2022-09-04T20:08:00.352Z,81.90
2022-09-04T20:10:38.318Z,82.30
2022-09-04T20:13:20.372Z,82.40
2022-09-04T20:15:56.874Z,82.10
2022-09-04T20:18:31.717Z,81.40
2022-09-04T20:21:08.496Z,81.70
2022-09-04T20:23:43.665Z,81.50
2022-09-04T20:26:21.573Z,81.30
2022-09-04T20:28:59.399Z,81.00
2022-09-04T20:31:49.200Z,81.20
2022-09-04T20:34:27.884Z,80.70
2022-09-04T20:37:10.147Z,81.60
2022-09-04T20:39:48.415Z,81.80
2022-09-04T20:42:26.980Z,81.40
2022-09-04T20:48:07.692Z,80.50
2022-09-04T20:52:48.761Z,81.60
2022-09-04T20:52:48.886Z,81.60
2022-09-04T20:53:51.313Z,82.20
2022-09-04T20:58:04.085Z,82.10
2022-09-04T21:03:12.661Z,82.00
2022-09-04T21:03:19.365Z,82.00
2022-09-04T21:05:41.356Z,83.00
2022-09-04T21:08:16.472Z,83.10
2022-09-04T21:10:52.876Z,83.20
2022-09-04T21:13:27.095Z,83.10
2022-09-04T21:16:07.106Z,83.00
2022-09-04T21:19:27.554Z,82.70
2022-09-04T21:22:01.864Z,82.70
2022-09-04T21:24:57.288Z,82.90
2022-09-04T21:27:46.022Z,83.10
2022-09-04T21:30:16.206Z,83.50
2022-09-04T21:33:28.098Z,83.90
2022-09-04T21:36:25.808Z,84.10
2022-09-04T21:39:18.779Z,85.50
2022-09-04T21:42:20.055Z,87.00
2022-09-04T21:45:12.429Z,87.80
2022-09-04T21:47:57.085Z,88.10
2022-09-04T21:50:47.799Z,88.40
2022-09-04T21:53:43.174Z,88.10
2022-09-04T22:00:21.294Z,87.60
2022-09-04T22:02:43.610Z,87.00
2022-09-04T22:03:01.464Z,86.50
2022-09-04T22:05:40.863Z,86.30
2022-09-04T22:12:09.082Z,87.00
2022-09-04T22:13:38.394Z,87.50
2022-09-04T22:14:20.294Z,87.80
2022-09-04T22:17:05.569Z,87.90
2022-09-04T22:19:54.107Z,87.90
2022-09-04T22:22:44.842Z,88.00
2022-09-04T22:25:45.922Z,87.50
2022-09-04T22:28:33.138Z,87.20
2022-09-04T22:31:22.379Z,87.00
2022-09-04T22:34:19.212Z,86.80
2022-09-04T22:37:11.691Z,86.90
2022-09-04T22:40:07.062Z,87.30
2022-09-04T22:42:45.033Z,88.30
2022-09-04T22:45:46.792Z,88.10
2022-09-04T22:48:34.657Z,88.10
2022-09-04T22:51:17.639Z,88.70
2022-09-04T22:54:12.066Z,90.10
2022-09-04T22:57:03.023Z,90.40
2022-09-04T23:00:09.345Z,90.90
2022-09-04T23:03:07.902Z,91.10
2022-09-04T23:10:03.384Z,91.00
2022-09-04T23:13:43.965Z,90.90
2022-09-04T23:13:59.884Z,90.90
2022-09-04T23:15:42.673Z,90.90
2022-09-04T23:19:43.970Z,90.90
2022-09-04T23:26:37.898Z,91.00
2022-09-04T23:26:50.540Z,91.30
2022-09-04T23:27:34.274Z,91.30
2022-09-04T23:30:25.686Z,91.20
2022-09-04T23:33:38.455Z,91.20
2022-09-04T23:36:34.853Z,91.10
2022-09-04T23:39:24.028Z,91.00
2022-09-04T23:42:03.431Z,91.30
2022-09-04T23:44:57.688Z,91.10
2022-09-04T23:47:48.146Z,90.60
2022-09-04T23:50:27.665Z,90.60
2022-09-04T23:53:06.350Z,90.50
2022-09-04T23:55:53.518Z,90.40
2022-09-04T23:58:53.245Z,90.40
